EKOD

Odense Airport

Odense, Denmark
METAR EKOD 261250Z 03014KT 350V060 CAVOK 22/09 Q1025
Observed Flight Rules
May-26 @ 12:50 UTC (48 minutes ago) Visual Flight Rules
Wind Visibility Clouds
30° at 14 knots 10,000+ meters
  • Clear skies
Temperatures Readings
Current 22°C / 72°F
Dewpoint 9°C / 48°F
Humidity 44%
Altimeter 30.27" Hg
Pressure 1025 hPa
Elevation 17
METAR EKOD 261250Z 03014KT 350V060 CAVOK 22/09 Q1025
Observed Flight Rules
May-26 @ 12:50 UTC
(48 minutes ago)
VFR
Wind Visibility
30° at 14 knots 10,000+ meters
Clouds
  • Clear skies
Temperature Dewpoint
22°C / 72°F 9°C / 48°F
Humidity Altimeter Pressure
44% 30.27" Hg 1025 hPa